Etusivu
METAR-TAF:

METAR-TAF

Lentoasemat :

Kangiqsualujjuaq, Quebec, Kanada

Leveyspiiri: 58-43N, Pituuspiiri: 065-59W, korkeus merenpinnasta: 60 m

Tämänhetkinen sää

Tämä raportti tehtiin 9 tuntia ja 39 minuuttia sitten, kello 12.00 UTC
Tuuli 6 kn etelästä/kaakosta
Lämpötila -1°C
Kosteus 86%
Ilmanpaine 1020 hPa
Näkyvyys: 24.1 km
Hajanaisia pilviä 3000 ft:n korkeudessa
Hajonneita pilviä 3200 ft:n korkeudessa
Pilvistä 4100 ft:n korkeudessa
heikkoja lumikuuroja

METAR: CYLU 251200Z 16006KT 15SM -SHSN SCT030 BKN032 OVC041 M01/M03 A3012 RMK SC3SC3SC2 LAST OBS/NEXT 251200UTC SLP208

Aika: 17:39 (21:39 UTC)


TAF: puuttuu

Säähavainnot ja -ennusteet yli 4000 lentoasemalta (METAR- ja TAF-raportit).

Käytössä olevat sääasemat on merkitty karttaan keltaisilla ja punaisilla pisteillä.

Aseta hiiri pisteen päälle nähdäksesi sääaseman nimen.

Klikkaa sitten nähdäksesi säähavainnot ja -ennusteet.

Kartan vaihtaminen: klikkaa mustalla rastilla varustettuja vihreitä pisteitä, niin voit zoomata sisään; viivalla varustettua vihreää pistettä, niin voit zoomata ulos tai vihreitä nuolia, niin pääset viereisille kartoille.


METAR-TAF: